createdAt,value
2022-07-31T00:00:16.822Z,97595.95
2022-07-31T00:02:43.469Z,97596.12
2022-07-31T00:05:11.067Z,97597.17
2022-07-31T00:07:37.675Z,97592.22
2022-07-31T00:10:05.514Z,97588.23
2022-07-31T00:12:32.497Z,97588.23
2022-07-31T00:14:59.000Z,97590.27
2022-07-31T00:17:25.686Z,97587.74
2022-07-31T00:19:52.412Z,97585.81
2022-07-31T00:22:19.107Z,97587.04
2022-07-31T00:24:45.815Z,97584.92
2022-07-31T00:27:12.695Z,97584.03
2022-07-31T00:29:39.855Z,97585.98
2022-07-31T00:32:06.762Z,97583.99
2022-07-31T00:34:33.642Z,97590.35
2022-07-31T00:37:00.466Z,97591.38
2022-07-31T00:39:27.541Z,97589.15
2022-07-31T00:41:54.368Z,97592.29
2022-07-31T00:44:21.005Z,97588.08
2022-07-31T00:46:48.056Z,97591.63
2022-07-31T00:49:16.102Z,97585.91
2022-07-31T00:51:42.875Z,97580.45
2022-07-31T00:54:10.203Z,97579.89
2022-07-31T00:56:49.165Z,97581.25
2022-07-31T00:59:15.737Z,97584.10
2022-07-31T01:01:42.348Z,97587.11
2022-07-31T01:04:09.097Z,97588.41
2022-07-31T01:06:42.849Z,97595.33
2022-07-31T01:09:09.509Z,97596.09
2022-07-31T01:11:44.893Z,97593.20
2022-07-31T01:14:12.849Z,97592.13
2022-07-31T01:16:44.834Z,97592.68
2022-07-31T01:19:43.328Z,97587.77
2022-07-31T01:22:35.347Z,97587.64
2022-07-31T01:25:40.712Z,97587.89
2022-07-31T01:28:10.360Z,97584.80
2022-07-31T01:30:43.526Z,97585.29
2022-07-31T01:33:14.814Z,97585.31
2022-07-31T01:35:45.786Z,97583.05
2022-07-31T01:38:16.134Z,97587.10
2022-07-31T01:40:47.508Z,97589.37
2022-07-31T01:43:25.926Z,97587.00
2022-07-31T01:45:58.214Z,97586.08
2022-07-31T01:48:26.790Z,97582.34
2022-07-31T01:50:58.335Z,97582.33
2022-07-31T01:53:26.629Z,97582.98
2022-07-31T01:56:01.872Z,97580.34
2022-07-31T01:58:35.298Z,97579.83
2022-07-31T02:01:04.682Z,97581.85
2022-07-31T02:03:44.389Z,97578.03
2022-07-31T02:06:18.184Z,97578.70
2022-07-31T02:08:50.828Z,97576.99
2022-07-31T02:11:20.191Z,97572.95
2022-07-31T02:13:48.271Z,97576.30
2022-07-31T02:16:17.427Z,97577.85
2022-07-31T02:18:44.153Z,97568.69
2022-07-31T02:21:10.897Z,97573.81
2022-07-31T02:23:38.415Z,97570.61
2022-07-31T02:26:06.841Z,97566.80
2022-07-31T02:28:36.970Z,97559.56
2022-07-31T02:31:05.148Z,97557.48
2022-07-31T02:33:32.854Z,97554.33
2022-07-31T02:36:00.664Z,97548.90
2022-07-31T02:38:28.452Z,97549.33
2022-07-31T02:41:01.581Z,97548.67
2022-07-31T02:43:30.589Z,97544.40
2022-07-31T02:45:58.488Z,97545.85
2022-07-31T02:48:25.673Z,97544.05
2022-07-31T02:50:53.342Z,97548.44
2022-07-31T02:53:20.872Z,97549.23
2022-07-31T02:55:48.062Z,97549.14
2022-07-31T02:58:14.613Z,97546.92
2022-07-31T03:00:41.642Z,97548.35
2022-07-31T03:03:08.433Z,97550.52
2022-07-31T03:05:35.350Z,97546.56
2022-07-31T03:08:01.874Z,97548.98
2022-07-31T03:10:28.571Z,97544.67
2022-07-31T03:12:56.304Z,97540.70
2022-07-31T03:15:25.691Z,97533.59
2022-07-31T03:17:54.535Z,97534.23
2022-07-31T03:20:21.866Z,97534.88
2022-07-31T03:22:48.904Z,97533.66
2022-07-31T03:25:21.163Z,97524.91
2022-07-31T03:27:55.053Z,97522.61
2022-07-31T03:30:24.539Z,97524.80
2022-07-31T03:32:52.212Z,97518.63
2022-07-31T03:35:19.646Z,97520.10
2022-07-31T03:37:46.519Z,97518.99
2022-07-31T03:40:13.782Z,97520.58
2022-07-31T03:42:40.869Z,97523.85
2022-07-31T03:45:09.706Z,97526.67
2022-07-31T03:47:37.058Z,97523.71
2022-07-31T03:50:05.780Z,97524.89
2022-07-31T03:52:32.513Z,97526.77
2022-07-31T03:54:59.645Z,97526.76
2022-07-31T03:57:31.058Z,97531.27
2022-07-31T04:00:00.929Z,97534.95
2022-07-31T04:02:28.576Z,97537.27
2022-07-31T04:04:55.639Z,97534.25
2022-07-31T04:07:22.289Z,97533.84
2022-07-31T04:09:48.961Z,97536.65
2022-07-31T04:12:15.887Z,97534.38
2022-07-31T04:14:42.473Z,97539.90
2022-07-31T04:17:09.271Z,97537.68
2022-07-31T04:19:36.260Z,97543.74
2022-07-31T04:22:03.462Z,97542.39
2022-07-31T04:24:30.393Z,97539.70
2022-07-31T04:26:58.091Z,97537.69
2022-07-31T04:29:25.449Z,97543.32
2022-07-31T04:31:52.093Z,97540.90
2022-07-31T04:34:18.587Z,97541.13
2022-07-31T04:36:45.278Z,97542.61
2022-07-31T04:39:11.817Z,97541.02
2022-07-31T04:41:38.338Z,97545.25
2022-07-31T04:44:05.306Z,97544.16
2022-07-31T04:46:31.788Z,97539.19
2022-07-31T04:48:58.726Z,97539.35
2022-07-31T04:51:25.481Z,97532.45
2022-07-31T04:53:52.296Z,97534.27
2022-07-31T04:56:19.854Z,97533.40
2022-07-31T04:58:46.617Z,97529.69
2022-07-31T05:01:13.190Z,97531.63
2022-07-31T05:03:43.071Z,97531.24
2022-07-31T05:06:11.491Z,97533.86
2022-07-31T05:08:39.483Z,97534.48
2022-07-31T05:11:07.174Z,97529.64
2022-07-31T05:13:33.831Z,97530.58
2022-07-31T05:16:00.401Z,97534.36
2022-07-31T05:18:26.941Z,97531.93
2022-07-31T05:20:53.658Z,97529.83
2022-07-31T05:23:20.405Z,97531.50
2022-07-31T05:25:47.046Z,97535.51
2022-07-31T05:28:13.565Z,97538.05
2022-07-31T05:30:40.123Z,97542.14
2022-07-31T05:33:07.017Z,97542.11
2022-07-31T05:35:33.627Z,97540.31
2022-07-31T05:38:00.182Z,97543.56
2022-07-31T05:40:26.900Z,97543.56
2022-07-31T05:42:53.685Z,97545.98
2022-07-31T05:45:20.401Z,97543.21
2022-07-31T05:47:47.038Z,97541.83
2022-07-31T05:50:13.664Z,97549.10
2022-07-31T05:52:40.323Z,97547.11
2022-07-31T05:55:07.457Z,97540.13
2022-07-31T05:57:34.757Z,97541.58
2022-07-31T06:00:02.012Z,97542.76
2022-07-31T06:02:30.686Z,97543.16
2022-07-31T06:04:57.474Z,97541.38
2022-07-31T06:07:24.174Z,97544.88
2022-07-31T06:09:50.955Z,97545.90
2022-07-31T06:12:18.887Z,97547.91
2022-07-31T06:14:45.975Z,97548.30
2022-07-31T06:17:12.516Z,97552.27
2022-07-31T06:19:39.053Z,97557.74
2022-07-31T06:22:06.074Z,97561.65
2022-07-31T06:24:33.539Z,97565.92
2022-07-31T06:27:01.931Z,97566.42
2022-07-31T06:29:41.935Z,97571.73
2022-07-31T06:32:09.285Z,97571.63
2022-07-31T06:34:35.812Z,97570.73
2022-07-31T06:37:02.514Z,97570.98
2022-07-31T06:39:55.277Z,97576.72
2022-07-31T06:42:26.314Z,97576.31
2022-07-31T06:44:54.080Z,97581.33
2022-07-31T06:47:23.524Z,97583.65
2022-07-31T06:49:50.758Z,97588.58
2022-07-31T06:52:18.727Z,97598.95
2022-07-31T06:54:46.118Z,97605.36
2022-07-31T06:57:12.829Z,97605.45
2022-07-31T06:59:41.558Z,97609.55
2022-07-31T07:02:08.683Z,97611.58
2022-07-31T07:04:56.540Z,97616.64
2022-07-31T07:07:22.751Z,97618.77
2022-07-31T07:09:49.423Z,97622.86
2022-07-31T07:12:16.754Z,97622.93
2022-07-31T07:14:44.651Z,97627.13
2022-07-31T07:17:11.264Z,97626.60
2022-07-31T07:19:40.645Z,97627.56
2022-07-31T07:22:07.644Z,97628.02
2022-07-31T07:24:34.496Z,97629.14
2022-07-31T07:27:01.009Z,97630.44
2022-07-31T07:29:27.857Z,97633.20
2022-07-31T07:31:54.383Z,97633.64
2022-07-31T07:34:21.062Z,97638.27
2022-07-31T07:36:47.674Z,97639.07
2022-07-31T07:39:14.283Z,97640.05
2022-07-31T07:41:40.960Z,97637.48
2022-07-31T07:44:07.699Z,97642.55
2022-07-31T07:46:34.549Z,97642.36
2022-07-31T07:49:02.892Z,97650.27
2022-07-31T07:51:29.776Z,97651.42
2022-07-31T07:53:56.418Z,97658.58
2022-07-31T07:56:23.161Z,97659.34
2022-07-31T07:58:50.417Z,97665.39
2022-07-31T08:01:17.302Z,97664.77
2022-07-31T08:03:50.126Z,97671.59
2022-07-31T08:06:20.244Z,97673.48
2022-07-31T08:08:46.844Z,97675.78
2022-07-31T08:11:17.608Z,97674.93
2022-07-31T08:13:50.699Z,97679.45
2022-07-31T08:16:21.823Z,97681.40
2022-07-31T08:18:49.692Z,97684.67
2022-07-31T08:21:16.403Z,97688.63
2022-07-31T08:23:43.060Z,97692.15
2022-07-31T08:26:09.737Z,97692.11
2022-07-31T08:28:37.366Z,97693.83
2022-07-31T08:31:03.983Z,97692.40
2022-07-31T08:33:30.678Z,97694.31
2022-07-31T08:35:57.335Z,97691.98
2022-07-31T08:38:23.861Z,97688.60
2022-07-31T08:40:50.487Z,97688.52
2022-07-31T08:44:01.471Z,97690.63
2022-07-31T08:46:05.189Z,97692.84
2022-07-31T08:48:33.046Z,97695.50
2022-07-31T08:51:03.061Z,97694.70
2022-07-31T08:53:31.346Z,97693.02
2022-07-31T08:55:58.072Z,97701.43
2022-07-31T08:58:24.973Z,97700.91
2022-07-31T09:00:51.899Z,97701.34
2022-07-31T09:03:19.178Z,97698.40
2022-07-31T09:05:45.795Z,97704.80
2022-07-31T09:08:14.965Z,97710.60
2022-07-31T09:10:49.111Z,97707.81
2022-07-31T09:13:18.167Z,97704.60
2022-07-31T09:15:45.887Z,97712.71
2022-07-31T09:18:31.355Z,97716.27
2022-07-31T09:21:03.935Z,97712.04
2022-07-31T09:23:31.193Z,97719.83
2022-07-31T09:26:05.868Z,97719.36
2022-07-31T09:28:37.923Z,97720.23
2022-07-31T09:31:07.414Z,97713.79
2022-07-31T09:33:34.676Z,97712.49
2022-07-31T09:36:01.169Z,97720.03
2022-07-31T09:38:36.565Z,97723.98
2022-07-31T09:41:56.546Z,97719.65
2022-07-31T09:44:10.114Z,97720.98
2022-07-31T09:46:45.510Z,97726.60
2022-07-31T09:49:12.606Z,97723.02
2022-07-31T09:51:40.978Z,97726.84
2022-07-31T09:54:07.823Z,97723.62
2022-07-31T09:56:35.889Z,97728.30
2022-07-31T09:59:02.675Z,97733.02
2022-07-31T10:01:33.354Z,97737.71
2022-07-31T10:04:01.669Z,97735.17
2022-07-31T10:06:32.050Z,97738.98
2022-07-31T10:09:02.242Z,97740.45
2022-07-31T10:11:30.382Z,97736.73
2022-07-31T10:14:00.808Z,97740.21
2022-07-31T10:16:32.366Z,97742.22
2022-07-31T10:19:01.308Z,97746.61
2022-07-31T10:21:41.661Z,97748.19
2022-07-31T10:24:10.952Z,97747.95
2022-07-31T10:29:26.466Z,97752.06
2022-07-31T10:31:53.555Z,97752.34
2022-07-31T10:34:22.238Z,97750.20
2022-07-31T10:36:52.192Z,97750.38
2022-07-31T10:39:31.072Z,97745.34
2022-07-31T10:42:13.916Z,97748.95
2022-07-31T10:44:46.869Z,97751.88
2022-07-31T10:47:14.870Z,97748.73
2022-07-31T10:49:46.708Z,97751.73
2022-07-31T10:52:13.760Z,97753.31
2022-07-31T10:54:46.471Z,97752.91
2022-07-31T10:57:33.677Z,97754.39
2022-07-31T11:00:11.772Z,97756.85
2022-07-31T11:02:38.932Z,97767.73
2022-07-31T11:05:16.129Z,97772.94
2022-07-31T11:07:45.637Z,97776.29
2022-07-31T11:10:21.645Z,97778.12
2022-07-31T11:13:08.965Z,97777.14
2022-07-31T11:15:35.778Z,97781.88
2022-07-31T11:18:23.679Z,97779.77
2022-07-31T11:21:17.364Z,97785.41
2022-07-31T11:23:57.779Z,97785.45
2022-07-31T11:26:33.632Z,97793.23
2022-07-31T11:30:00.871Z,97792.28
2022-07-31T11:31:55.370Z,97796.95
2022-07-31T11:34:22.017Z,97799.19
2022-07-31T11:36:51.458Z,97802.92
2022-07-31T11:39:18.648Z,97798.48
2022-07-31T11:41:50.442Z,97806.13
2022-07-31T11:44:21.916Z,97812.10
2022-07-31T11:46:50.603Z,97807.00
2022-07-31T11:49:48.053Z,97807.96
2022-07-31T11:52:30.969Z,97802.84
2022-07-31T11:55:09.718Z,97804.52
2022-07-31T11:57:51.541Z,97805.52
2022-07-31T12:00:26.471Z,97808.61
2022-07-31T12:02:56.841Z,97811.10
2022-07-31T12:05:36.136Z,97814.08
2022-07-31T12:08:07.063Z,97816.77
2022-07-31T12:10:34.629Z,97820.30
2022-07-31T12:13:02.508Z,97818.11
2022-07-31T12:15:29.461Z,97813.67
2022-07-31T12:18:05.753Z,97819.67
2022-07-31T12:20:36.556Z,97824.44
2022-07-31T12:23:05.799Z,97829.85
2022-07-31T12:25:43.581Z,97828.10
2022-07-31T12:28:13.186Z,97828.67
2022-07-31T12:30:39.885Z,97833.54
2022-07-31T12:33:08.504Z,97835.20
2022-07-31T12:35:37.222Z,97835.06
2022-07-31T12:38:40.708Z,97836.21
2022-07-31T12:41:08.595Z,97834.88
2022-07-31T12:43:37.711Z,97833.31
2022-07-31T12:46:04.545Z,97833.36
2022-07-31T12:48:37.971Z,97828.42
2022-07-31T12:51:06.128Z,97832.23
2022-07-31T12:53:32.868Z,97832.47
2022-07-31T12:55:59.619Z,97833.67
2022-07-31T12:58:26.359Z,97831.77
2022-07-31T13:00:53.108Z,97831.71
2022-07-31T13:03:19.750Z,97832.58
2022-07-31T13:05:50.347Z,97827.08
2022-07-31T13:08:18.667Z,97827.96
2022-07-31T13:10:45.443Z,97822.33
2022-07-31T13:13:11.950Z,97822.80
2022-07-31T13:15:38.596Z,97822.45
2022-07-31T13:18:05.358Z,97814.48
2022-07-31T13:20:32.215Z,97816.44
2022-07-31T13:22:59.450Z,97816.81
2022-07-31T13:25:28.561Z,97816.13
2022-07-31T13:27:55.189Z,97815.65
2022-07-31T13:30:21.738Z,97814.81
2022-07-31T13:32:48.473Z,97809.45
2022-07-31T13:35:24.283Z,97810.52
2022-07-31T13:37:55.999Z,97805.64
2022-07-31T13:40:22.850Z,97811.45
2022-07-31T13:42:49.701Z,97810.30
2022-07-31T13:45:16.301Z,97812.25
2022-07-31T13:47:50.392Z,97806.64
2022-07-31T13:50:19.663Z,97813.28
2022-07-31T13:52:46.507Z,97814.33
2022-07-31T13:55:13.190Z,97811.34
2022-07-31T13:57:39.921Z,97816.02
2022-07-31T14:00:07.233Z,97819.20
2022-07-31T14:02:33.983Z,97820.54
2022-07-31T14:05:00.646Z,97827.34
2022-07-31T14:07:48.178Z,97833.88
2022-07-31T14:10:19.937Z,97831.88
2022-07-31T14:12:47.294Z,97835.94
2022-07-31T14:15:13.952Z,97834.05
2022-07-31T14:17:40.797Z,97830.36
2022-07-31T14:20:08.084Z,97831.82
2022-07-31T14:22:34.701Z,97835.48
2022-07-31T14:25:01.263Z,97835.35
2022-07-31T14:27:27.919Z,97835.60
2022-07-31T14:29:54.581Z,97838.44
2022-07-31T14:32:21.384Z,97838.42
2022-07-31T14:34:49.735Z,97837.02
2022-07-31T14:37:16.692Z,97839.00
2022-07-31T14:39:43.566Z,97842.49
2022-07-31T14:42:10.923Z,97837.73
2022-07-31T14:44:37.568Z,97844.27
2022-07-31T14:47:04.509Z,97839.69
2022-07-31T14:50:09.552Z,97843.39
2022-07-31T14:52:19.106Z,97841.74
2022-07-31T14:54:45.681Z,97841.34
2022-07-31T14:57:12.498Z,97844.31
2022-07-31T14:59:46.781Z,97847.57
2022-07-31T15:02:13.568Z,97855.14
2022-07-31T15:04:40.137Z,97857.67
2022-07-31T15:07:33.784Z,97855.33
2022-07-31T15:09:53.561Z,97856.36
2022-07-31T15:12:20.202Z,97858.29
2022-07-31T15:14:46.845Z,97858.80
2022-07-31T15:17:13.430Z,97859.35
2022-07-31T15:19:40.111Z,97860.67
2022-07-31T15:22:10.161Z,97863.19
2022-07-31T15:24:48.438Z,97865.11
2022-07-31T15:27:17.025Z,97860.80
2022-07-31T15:30:03.551Z,97867.17
2022-07-31T15:32:30.208Z,97863.52
2022-07-31T15:34:56.855Z,97859.11
2022-07-31T15:37:23.596Z,97862.38
2022-07-31T15:40:02.881Z,97863.39
2022-07-31T15:42:35.011Z,97861.59
2022-07-31T15:45:01.538Z,97863.33
2022-07-31T15:47:28.198Z,97864.27
2022-07-31T15:49:55.153Z,97863.95
2022-07-31T15:52:21.725Z,97862.70
2022-07-31T15:54:51.956Z,97868.21
2022-07-31T15:57:22.871Z,97864.95
2022-07-31T15:59:50.822Z,97870.67
2022-07-31T16:02:17.796Z,97872.66
2022-07-31T16:04:52.309Z,97874.56
2022-07-31T16:08:28.732Z,97870.11
2022-07-31T16:10:18.003Z,97876.98
2022-07-31T16:12:48.645Z,97876.89
2022-07-31T16:15:16.906Z,97876.52
2022-07-31T16:17:44.725Z,97876.90
2022-07-31T16:20:20.863Z,97879.48
2022-07-31T16:22:59.873Z,97879.38
2022-07-31T16:25:27.515Z,97880.55
2022-07-31T16:27:54.810Z,97884.74
2022-07-31T16:30:22.330Z,97887.94
2022-07-31T16:32:50.135Z,97883.98
2022-07-31T16:35:16.811Z,97885.61
2022-07-31T16:37:51.679Z,97886.79
2022-07-31T16:40:29.765Z,97881.75
2022-07-31T16:43:49.365Z,97889.29
2022-07-31T16:45:53.308Z,97891.85
2022-07-31T16:48:19.959Z,97894.72
2022-07-31T16:50:52.920Z,97893.31
2022-07-31T16:54:10.533Z,97897.48
2022-07-31T16:56:14.360Z,97894.86
2022-07-31T16:58:41.315Z,97888.90
2022-07-31T17:01:57.186Z,97889.02
2022-07-31T17:04:00.262Z,97888.15
2022-07-31T17:06:35.959Z,97887.69
2022-07-31T17:09:16.531Z,97883.98
2022-07-31T17:11:50.154Z,97886.70
2022-07-31T17:14:18.946Z,97885.65
2022-07-31T17:16:48.372Z,97883.40
2022-07-31T17:19:41.392Z,97888.80
2022-07-31T17:22:08.066Z,97896.04
2022-07-31T17:24:36.677Z,97893.37
2022-07-31T17:27:05.457Z,97900.89
2022-07-31T17:29:32.293Z,97901.19
2022-07-31T17:31:59.088Z,97901.02
2022-07-31T17:34:25.694Z,97906.63
2022-07-31T17:36:52.353Z,97908.58
2022-07-31T17:39:19.165Z,97909.36
2022-07-31T17:41:47.741Z,97909.80
2022-07-31T17:44:14.497Z,97911.45
2022-07-31T17:46:48.026Z,97909.50
2022-07-31T17:49:20.332Z,97912.79
2022-07-31T17:52:07.717Z,97916.42
2022-07-31T17:54:34.538Z,97918.00
2022-07-31T17:57:01.431Z,97919.52
2022-07-31T17:59:28.731Z,97921.20
2022-07-31T18:01:56.469Z,97921.35
2022-07-31T18:04:23.053Z,97923.00
2022-07-31T18:06:54.541Z,97923.97
2022-07-31T18:09:22.084Z,97925.66
2022-07-31T18:11:52.439Z,97928.65
2022-07-31T18:14:19.599Z,97928.19
2022-07-31T18:16:47.617Z,97922.52
2022-07-31T18:19:14.904Z,97923.08
2022-07-31T18:21:42.034Z,97926.91
2022-07-31T18:24:09.117Z,97929.39
2022-07-31T18:26:36.164Z,97932.29
2022-07-31T18:29:03.493Z,97932.73
2022-07-31T18:31:34.689Z,97934.64
2022-07-31T18:34:06.308Z,97936.80
2022-07-31T18:36:33.906Z,97936.54
2022-07-31T18:39:01.325Z,97937.95
2022-07-31T18:41:28.289Z,97940.89
2022-07-31T18:43:56.092Z,97942.17
2022-07-31T18:46:23.876Z,97942.59
2022-07-31T18:48:55.518Z,97945.05
2022-07-31T18:51:23.424Z,97942.87
2022-07-31T18:53:50.719Z,97943.68
2022-07-31T18:56:17.414Z,97940.77
2022-07-31T18:58:44.665Z,97940.98
2022-07-31T19:01:11.807Z,97946.46
2022-07-31T19:03:38.538Z,97946.98
2022-07-31T19:06:05.392Z,97953.02
2022-07-31T19:08:32.248Z,97955.23
2022-07-31T19:10:58.984Z,97952.56
2022-07-31T19:13:25.622Z,97954.35
2022-07-31T19:15:52.789Z,97958.42
2022-07-31T19:18:28.333Z,97957.75
2022-07-31T19:21:22.938Z,97953.22
2022-07-31T19:23:46.086Z,97954.96
2022-07-31T19:26:12.905Z,97956.98
2022-07-31T19:28:40.195Z,97958.02
2022-07-31T19:31:07.463Z,97960.73
2022-07-31T19:33:34.200Z,97960.77
2022-07-31T19:36:02.680Z,97961.85
2022-07-31T19:38:31.794Z,97960.20
2022-07-31T19:40:59.297Z,97964.71
2022-07-31T19:43:26.125Z,97962.78
2022-07-31T19:46:10.493Z,97964.14
2022-07-31T19:48:41.318Z,97966.71
2022-07-31T19:51:09.068Z,97963.92
2022-07-31T19:53:35.901Z,97963.02
2022-07-31T19:56:02.469Z,97962.67
2022-07-31T19:58:29.187Z,97965.16
2022-07-31T20:00:55.697Z,97966.13
2022-07-31T20:03:22.389Z,97963.27
2022-07-31T20:05:49.221Z,97964.24
2022-07-31T20:08:15.747Z,97961.98
2022-07-31T20:10:42.403Z,97960.58
2022-07-31T20:13:09.010Z,97959.41
2022-07-31T20:15:51.154Z,97956.91
2022-07-31T20:18:27.674Z,97956.52
2022-07-31T20:21:05.904Z,97951.88
2022-07-31T20:23:33.336Z,97951.34
2022-07-31T20:26:00.443Z,97946.35
2022-07-31T20:28:27.307Z,97946.12
2022-07-31T20:30:54.563Z,97947.44
2022-07-31T20:33:21.204Z,97948.08
2022-07-31T20:35:50.166Z,97948.49
2022-07-31T20:38:24.440Z,97945.73
2022-07-31T20:40:55.417Z,97943.24
2022-07-31T20:43:29.081Z,97948.02
2022-07-31T20:45:57.867Z,97947.91
2022-07-31T20:48:26.360Z,97949.92
2022-07-31T20:50:53.005Z,97944.98
2022-07-31T20:53:19.664Z,97949.02
2022-07-31T20:55:46.519Z,97952.00
2022-07-31T20:58:13.644Z,97948.27
2022-07-31T21:00:40.520Z,97947.34
2022-07-31T21:03:07.142Z,97946.94
2022-07-31T21:05:33.918Z,97944.17
2022-07-31T21:08:00.447Z,97943.06
2022-07-31T21:10:29.302Z,97943.49
2022-07-31T21:12:57.553Z,97941.35
2022-07-31T21:15:41.128Z,97944.77
2022-07-31T21:18:20.477Z,97940.51
2022-07-31T21:20:49.874Z,97941.48
2022-07-31T21:23:24.025Z,97942.27
2022-07-31T21:25:58.530Z,97940.47
2022-07-31T21:28:28.004Z,97941.08
2022-07-31T21:30:55.229Z,97939.95
2022-07-31T21:33:23.493Z,97940.84
2022-07-31T21:35:50.644Z,97938.41
2022-07-31T21:38:18.407Z,97939.70
2022-07-31T21:40:45.983Z,97939.54
2022-07-31T21:43:16.758Z,97939.45
2022-07-31T21:45:56.090Z,97941.19
2022-07-31T21:48:26.584Z,97942.27
2022-07-31T21:50:54.559Z,97944.61
2022-07-31T21:53:22.406Z,97942.80
2022-07-31T21:55:49.125Z,97942.90
2022-07-31T21:58:16.260Z,97943.55
2022-07-31T22:00:44.076Z,97940.31
2022-07-31T22:03:10.969Z,97936.42
2022-07-31T22:05:37.754Z,97937.70
2022-07-31T22:08:04.736Z,97936.10
2022-07-31T22:10:31.633Z,97939.23
2022-07-31T22:12:59.391Z,97941.01
2022-07-31T22:15:25.994Z,97938.59
2022-07-31T22:18:12.934Z,97939.85
2022-07-31T22:20:39.988Z,97939.02
2022-07-31T22:23:07.015Z,97938.13
2022-07-31T22:25:34.169Z,97938.92
2022-07-31T22:28:04.570Z,97937.90
2022-07-31T22:30:31.684Z,97938.39
2022-07-31T22:33:00.345Z,97940.31
2022-07-31T22:35:28.389Z,97942.27
2022-07-31T22:37:55.678Z,97934.77
2022-07-31T22:40:23.756Z,97937.83
2022-07-31T22:42:57.415Z,97935.39
2022-07-31T22:45:25.237Z,97936.14
2022-07-31T22:47:52.189Z,97936.02
2022-07-31T22:50:19.066Z,97935.29
2022-07-31T22:52:45.883Z,97930.70
2022-07-31T22:55:12.709Z,97931.89
2022-07-31T22:57:40.438Z,97934.65
2022-07-31T23:00:08.439Z,97930.92
2022-07-31T23:02:35.313Z,97928.14
2022-07-31T23:05:01.955Z,97929.79
2022-07-31T23:07:28.921Z,97929.79
2022-07-31T23:09:55.560Z,97925.23
2022-07-31T23:12:22.129Z,97922.90
2022-07-31T23:14:54.974Z,97925.40
2022-07-31T23:17:23.018Z,97920.97
2022-07-31T23:19:54.076Z,97923.17
2022-07-31T23:22:30.875Z,97924.48
2022-07-31T23:25:05.128Z,97921.36
2022-07-31T23:27:32.793Z,97920.87
2022-07-31T23:30:00.341Z,97918.41
2022-07-31T23:32:28.263Z,97921.98
2022-07-31T23:34:54.960Z,97920.80
2022-07-31T23:37:21.479Z,97921.73
2022-07-31T23:39:48.096Z,97921.86
2022-07-31T23:42:14.729Z,97922.92
2022-07-31T23:44:41.287Z,97922.78
2022-07-31T23:47:15.784Z,97924.72
2022-07-31T23:49:42.834Z,97931.71
2022-07-31T23:52:09.576Z,97933.15
2022-07-31T23:54:36.219Z,97934.33
2022-07-31T23:57:02.965Z,97932.23
2022-07-31T23:59:29.506Z,97936.41
